East Braintree, Massachusetts
Current Conditions -  °F | °C
As of 2:53 AM on Monday 26 Jan 2015 (Local Time) from KOWD Reporting Station
Clear Clear  
Wind Chill:   Ceiling: Unl
Heat Index: 15°   Visibility: 10mi
Dew Point:   Wind: 6mph
Humidity: 51%   Direction: 10°N
Pressure: 30.08"   Gusts: NA
Location:  42.2036°N, 71.0017°W
Report Text: KOWD 260753Z AUTO 01005KT 10SM CLR M09/M18 A3008 RMK AO2 SLP187 T10941178
Loading
Personal Weather Stations






























Interactive Weather Map New forecast layout! Learn more

10-Day Weather Forecast

Advertisements
Track Severe Weather on mobile